Time;durP1;ratioP1;P1;durP2;ratioP2;P2;SDS_P1;SDS_P2;PMS_P1;PMS_P2;Temp;Humidity;BMP_temperature;BMP_pressure;BME280_temperature;BME280_humidity;BME280_pressure;Samples;Min_cycle;Max_cycle;Signal;HPM_P1;HPM_P2
2021/11/24 00:01:02;;;;;;;27.30;15.30;;;;;;;6.63;94.00;102967.16;5042640;28;20052;-82
2021/11/24 00:03:27;;;;;;;21.00;14.00;;;;;;;6.64;94.13;102971.50;5060513;28;20056;-82
2021/11/24 00:05:52;;;;;;;18.00;12.95;;;;;;;6.63;94.30;102972.34;5026591;28;20028;-82
2021/11/24 00:08:18;;;;;;;19.10;13.90;;;;;;;6.58;94.00;102971.44;5060406;28;20101;-82
2021/11/24 00:10:44;;;;;;;16.20;12.52;;;;;;;6.55;93.74;102968.81;5007808;28;20209;-82
2021/11/24 00:13:09;;;;;;;21.45;14.23;;;;;;;6.54;93.77;102970.53;5047085;28;20051;-82
2021/11/24 00:15:34;;;;;;;17.25;13.05;;;;;;;6.56;93.88;102967.06;5031091;28;20263;-83
2021/11/24 00:18:00;;;;;;;21.80;13.63;;;;;;;6.52;93.71;102967.03;5046700;28;20041;-83
2021/11/24 00:20:26;;;;;;;19.40;13.35;;;;;;;6.52;93.67;102966.16;5046882;28;20236;-83
2021/11/24 00:22:51;;;;;;;22.02;13.80;;;;;;;6.52;93.69;102963.56;5030374;28;20032;-82
2021/11/24 00:25:17;;;;;;;20.73;13.65;;;;;;;6.51;93.42;102962.69;5028302;28;20112;-82
2021/11/24 00:27:42;;;;;;;16.27;12.48;;;;;;;6.51;93.58;102967.00;5045736;28;20048;-82
2021/11/24 00:30:08;;;;;;;15.20;11.98;;;;;;;6.52;93.48;102963.56;5045560;28;20103;-83
2021/11/24 00:32:34;;;;;;;16.45;11.88;;;;;;;6.51;93.50;102962.69;5029177;28;20044;-82
2021/11/24 00:34:59;;;;;;;16.67;11.75;;;;;;;6.51;93.45;102967.91;5029562;28;20039;-82
2021/11/24 00:37:25;;;;;;;15.70;11.88;;;;;;;6.52;93.46;102966.16;5025091;28;20049;-83
2021/11/24 00:39:50;;;;;;;16.83;10.88;;;;;;;6.52;93.37;102958.38;5064648;28;20063;-82
2021/11/24 00:42:16;;;;;;;19.52;12.82;;;;;;;6.52;93.36;102956.63;5030425;28;20217;-82
2021/11/24 00:44:41;;;;;;;17.55;12.07;;;;;;;6.51;93.27;102962.69;5064024;28;20171;-82
2021/11/24 00:47:08;;;;;;;17.20;12.85;;;;;;;6.52;93.28;102958.38;5064580;28;20025;-82
2021/11/24 00:49:34;;;;;;;21.48;13.40;;;;;;;6.54;93.42;102954.03;5047146;28;20115;-82
2021/11/24 00:52:00;;;;;;;16.85;12.95;;;;;;;6.54;93.59;102957.50;5029986;28;20060;-82
2021/11/24 00:54:25;;;;;;;16.67;13.23;;;;;;;6.54;93.44;102949.69;5064090;28;20114;-82
2021/11/24 00:56:51;;;;;;;15.05;11.13;;;;;;;6.54;93.42;102956.63;5064573;28;20115;-82
2021/11/24 00:59:16;;;;;;;21.27;12.50;;;;;;;6.52;93.13;102948.81;5063517;28;20041;-82
2021/11/24 01:01:41;;;;;;;16.52;13.05;;;;;;;6.52;93.10;102945.34;5046257;28;20052;-82
2021/11/24 01:04:07;;;;;;;17.10;13.10;;;;;;;6.53;93.04;102947.06;5029480;28;20053;-82
2021/11/24 01:06:32;;;;;;;19.33;13.07;;;;;;;6.53;93.39;102940.16;5045994;28;20068;-82
2021/11/24 01:08:58;;;;;;;17.52;13.82;;;;;;;6.54;93.58;102935.81;5064115;28;20029;-82
2021/11/24 01:11:23;;;;;;;19.38;13.02;;;;;;;6.54;93.31;102938.41;5045931;28;20024;-82
2021/11/24 01:13:49;;;;;;;17.52;12.70;;;;;;;6.53;93.30;102934.06;5068753;28;20037;-82
2021/11/24 01:16:14;;;;;;;19.88;13.27;;;;;;;6.55;93.38;102932.38;5028934;28;20100;-82
2021/11/24 01:18:40;;;;;;;17.92;13.13;;;;;;;6.57;93.39;102925.44;5029129;28;20340;-82
2021/11/24 01:21:05;;;;;;;20.02;13.43;;;;;;;6.56;93.46;102921.06;5065651;28;20137;-82
2021/11/24 01:23:31;;;;;;;20.00;12.48;;;;;;;6.55;93.32;102916.75;5045731;28;20037;-82
2021/11/24 01:25:56;;;;;;;21.30;13.07;;;;;;;6.57;93.36;102922.84;5045546;28;20036;-82
2021/11/24 01:28:22;;;;;;;22.35;13.50;;;;;;;6.56;93.46;102923.69;5028816;28;20316;-82
2021/11/24 01:30:47;;;;;;;18.58;14.43;;;;;;;6.57;93.24;102922.84;5074107;28;20029;-82
2021/11/24 01:33:13;;;;;;;20.58;14.35;;;;;;;6.63;93.55;102917.66;5045665;28;20040;-82
2021/11/24 01:35:38;;;;;;;23.38;15.75;;;;;;;6.68;93.94;102909.91;5045068;28;20213;-82
2021/11/24 01:38:04;;;;;;;21.33;15.75;;;;;;;6.68;94.10;102916.00;5012447;28;20115;-82
2021/11/24 01:40:29;;;;;;;19.02;14.60;;;;;;;6.67;94.00;102918.56;5045905;28;20101;-82
2021/11/24 01:42:55;;;;;;;23.42;14.75;;;;;;;6.64;94.06;102916.84;5045315;28;20040;-82
2021/11/24 01:45:20;;;;;;;23.15;14.90;;;;;;;6.64;93.93;102918.53;5059887;28;20021;-82
2021/11/24 01:47:46;;;;;;;21.38;15.52;;;;;;;6.64;93.99;102911.63;5017797;28;20333;-82
2021/11/24 01:50:11;;;;;;;24.00;15.73;;;;;;;6.65;93.94;102910.75;5044887;28;20044;-82
2021/11/24 01:52:37;;;;;;;20.65;14.80;;;;;;;6.65;93.91;102910.75;5028834;28;20095;-82
2021/11/24 01:55:03;;;;;;;24.85;15.07;;;;;;;6.65;93.81;102902.94;5045856;28;20206;-82
2021/11/24 01:57:29;;;;;;;26.02;15.43;;;;;;;6.66;93.70;102906.44;5028236;28;20040;-82
2021/11/24 01:59:56;;;;;;;22.77;14.65;;;;;;;6.67;93.80;102903.81;5012291;28;20051;-82
2021/11/24 02:02:22;;;;;;;18.83;13.82;;;;;;;6.66;93.66;102909.91;5044983;28;20050;-82
2021/11/24 02:04:47;;;;;;;23.52;14.73;;;;;;;6.65;93.62;102894.25;5045153;28;20079;-82
2021/11/24 02:07:13;;;;;;;20.92;14.57;;;;;;;6.65;93.60;102902.06;5065068;28;20195;-82
2021/11/24 02:09:39;;;;;;;19.15;14.10;;;;;;;6.65;93.37;102897.72;5028551;28;20037;-82
2021/11/24 02:12:04;;;;;;;20.75;13.98;;;;;;;6.65;93.51;102892.50;5028680;28;20090;-82
2021/11/24 02:14:30;;;;;;;21.15;14.68;;;;;;;6.66;93.60;102889.06;5030940;28;20332;-82
2021/11/24 02:16:55;;;;;;;23.33;16.75;;;;;;;6.70;93.76;102884.75;5027775;28;20407;-82
2021/11/24 02:19:22;;;;;;;23.85;16.42;;;;;;;6.73;93.79;102880.44;5012133;28;20045;-82
2021/11/24 02:21:49;;;;;;;23.55;15.38;;;;;;;6.73;94.04;102883.06;5028405;28;20054;-82
2021/11/24 02:24:14;;;;;;;23.85;15.88;;;;;;;6.71;94.00;102882.16;5044363;28;20036;-82
2021/11/24 02:26:40;;;;;;;24.30;16.08;;;;;;;6.72;93.87;102877.81;5027956;28;20036;-82
2021/11/24 02:29:05;;;;;;;24.52;17.23;;;;;;;6.73;93.90;102869.13;5045098;28;20051;-83
2021/11/24 02:31:31;;;;;;;24.40;16.60;;;;;;;6.72;93.97;102868.28;5028033;28;20048;-82
2021/11/24 02:33:57;;;;;;;23.83;16.25;;;;;;;6.72;94.00;102865.66;5044147;28;20033;-82
2021/11/24 02:36:23;;;;;;;24.33;17.33;;;;;;;6.71;93.94;102856.13;5027709;28;20052;-82
2021/11/24 02:38:49;;;;;;;22.35;17.17;;;;;;;6.71;94.01;102843.13;5028370;28;20079;-82
2021/11/24 02:41:14;;;;;;;26.13;17.35;;;;;;;6.74;93.81;102847.47;5028239;28;20036;-82
2021/11/24 02:43:39;;;;;;;24.33;16.10;;;;;;;6.75;93.92;102841.41;5027826;28;20054;-82
2021/11/24 02:46:05;;;;;;;22.58;17.05;;;;;;;6.74;93.98;102839.66;5011265;28;20037;-82
2021/11/24 02:48:30;;;;;;;27.08;17.45;;;;;;;6.77;93.96;102829.25;5061844;28;20025;-82
2021/11/24 02:50:56;;;;;;;24.30;16.67;;;;;;;6.84;94.20;102830.16;5062447;28;20032;-82
2021/11/24 02:53:28;;;;;;;28.55;19.55;;;;;;;6.94;94.60;102831.97;5044228;28;20271;-82
2021/11/24 02:55:54;;;;;;;27.42;18.15;;;;;;;6.96;94.65;102832.84;5028237;28;20151;-82
2021/11/24 02:58:20;;;;;;;27.63;17.13;;;;;;;6.92;94.80;102824.13;5062152;28;20267;-82
2021/11/24 03:00:45;;;;;;;23.83;16.77;;;;;;;6.90;94.13;102822.41;5062353;28;20029;-82
2021/11/24 03:03:10;;;;;;;24.02;16.83;;;;;;;6.88;94.13;102818.91;5010875;28;20035;-82
2021/11/24 03:05:36;;;;;;;25.20;17.35;;;;;;;6.85;94.08;102816.28;5040352;28;20249;-82
2021/11/24 03:08:01;;;;;;;24.58;16.38;;;;;;;6.86;94.19;102815.44;5040910;28;20017;-82
2021/11/24 03:10:27;;;;;;;20.60;16.25;;;;;;;6.84;93.89;102817.13;5007333;28;20026;-82
2021/11/24 03:12:52;;;;;;;21.50;16.92;;;;;;;6.82;93.78;102813.66;5024244;28;20030;-82
2021/11/24 03:15:17;;;;;;;20.98;16.25;;;;;;;6.79;93.96;102811.06;5055782;28;20033;-82
2021/11/24 03:17:43;;;;;;;23.98;16.77;;;;;;;6.79;93.50;102809.31;5041413;28;20214;-82
2021/11/24 03:20:09;;;;;;;23.20;16.90;;;;;;;6.79;93.72;102803.22;5040685;28;20049;-82
2021/11/24 03:22:35;;;;;;;28.85;16.65;;;;;;;6.81;94.07;102799.75;5024301;28;20048;-82
2021/11/24 03:25:00;;;;;;;25.55;16.88;;;;;;;6.82;94.04;102798.91;5007453;28;20021;-82
2021/11/24 03:27:28;;;;;;;24.10;17.13;;;;;;;6.81;94.13;102797.16;5032479;28;20096;-82
2021/11/24 03:29:53;;;;;;;25.00;17.45;;;;;;;6.82;94.04;102785.00;5036862;28;20048;-82
2021/11/24 03:32:19;;;;;;;22.73;16.60;;;;;;;6.81;93.90;102783.28;5040487;28;20041;-82
2021/11/24 03:34:44;;;;;;;20.63;15.15;;;;;;;6.81;94.14;102785.88;5040222;28;20041;-82
2021/11/24 03:37:10;;;;;;;21.17;14.75;;;;;;;6.79;93.91;102775.44;5023163;28;20043;-82
2021/11/24 03:39:35;;;;;;;21.95;16.02;;;;;;;6.78;93.75;102768.47;5007407;28;20037;-82
2021/11/24 03:42:01;;;;;;;21.02;15.98;;;;;;;6.77;93.39;102766.75;5023686;28;20037;-82
2021/11/24 03:44:26;;;;;;;24.60;15.75;;;;;;;6.78;93.74;102765.03;5040078;28;20035;-82
2021/11/24 03:46:52;;;;;;;20.83;16.20;;;;;;;6.78;93.75;102765.03;5023153;28;20041;-82
2021/11/24 03:49:17;;;;;;;23.83;16.48;;;;;;;6.78;93.86;102759.81;5039509;28;20037;-82
2021/11/24 03:51:43;;;;;;;26.95;16.75;;;;;;;6.79;93.74;102758.97;5040144;28;20064;-82
2021/11/24 03:54:08;;;;;;;24.83;17.40;;;;;;;6.81;93.90;102763.31;5038774;28;20049;-82
2021/11/24 03:56:33;;;;;;;29.88;18.02;;;;;;;6.82;94.12;102758.97;5021730;28;20037;-81
2021/11/24 03:58:59;;;;;;;23.95;16.33;;;;;;;6.83;94.18;102766.78;5035249;28;20033;-81
2021/11/24 04:01:24;;;;;;;27.17;17.75;;;;;;;6.81;93.94;102755.50;5021924;28;20355;-81
2021/11/24 04:03:50;;;;;;;23.33;16.65;;;;;;;6.81;93.87;102754.63;5040978;28;20399;-81
2021/11/24 04:06:15;;;;;;;21.67;16.17;;;;;;;6.80;93.78;102748.53;5025851;28;20332;-81
2021/11/24 04:08:41;;;;;;;24.50;17.08;;;;;;;6.80;93.78;102755.47;5059287;28;20237;-81
2021/11/24 04:11:06;;;;;;;22.50;16.98;;;;;;;6.80;93.66;102750.28;5040752;28;20336;-81
2021/11/24 04:13:32;;;;;;;23.52;16.08;;;;;;;6.79;93.68;102751.16;5059409;28;20044;-81
2021/11/24 04:15:57;;;;;;;23.00;16.90;;;;;;;6.78;93.63;102750.25;5041540;28;20044;-81
2021/11/24 04:18:22;;;;;;;30.15;18.60;;;;;;;6.79;93.90;102744.19;5059283;28;20039;-81
2021/11/24 04:20:48;;;;;;;23.15;17.80;;;;;;;6.85;94.01;102739.00;5041567;28;20233;-81
2021/11/24 04:23:13;;;;;;;34.03;18.55;;;;;;;6.90;94.27;102733.84;5041495;28;20243;-81
2021/11/24 04:25:39;;;;;;;26.45;18.30;;;;;;;6.87;94.32;102739.03;5062245;28;20041;-81
2021/11/24 04:28:04;;;;;;;29.02;17.75;;;;;;;6.83;94.21;102734.66;5041568;28;20036;-81
2021/11/24 04:30:30;;;;;;;26.95;18.13;;;;;;;6.81;94.13;102733.78;5040303;28;20306;-81
2021/11/24 04:32:55;;;;;;;26.23;17.35;;;;;;;6.80;94.20;102719.03;5041646;28;20348;-81
2021/11/24 04:35:21;;;;;;;34.22;19.05;;;;;;;6.79;94.44;102712.94;5058501;28;20108;-81
2021/11/24 04:37:47;;;;;;;29.35;17.90;;;;;;;6.78;94.30;102703.38;5058954;28;20037;-81
2021/11/24 04:40:13;;;;;;;25.17;17.77;;;;;;;6.79;94.28;102706.88;5058948;28;20344;-81
2021/11/24 04:42:40;;;;;;;26.80;18.67;;;;;;;6.78;94.37;102710.34;5059166;28;20041;-81
2021/11/24 04:45:06;;;;;;;30.98;18.38;;;;;;;6.77;94.14;102711.19;5059678;28;20052;-81
2021/11/24 04:47:32;;;;;;;27.17;19.52;;;;;;;6.77;94.41;102693.84;5041535;28;20333;-81
2021/11/24 04:49:57;;;;;;;30.95;19.95;;;;;;;6.79;94.39;102697.31;5008593;28;20104;-81
2021/11/24 04:52:23;;;;;;;27.90;18.70;;;;;;;6.80;94.45;102693.84;5042004;28;20037;-81
2021/11/24 04:54:48;;;;;;;30.33;19.25;;;;;;;6.81;94.57;102694.72;5025452;28;20291;-81
2021/11/24 04:57:13;;;;;;;31.85;19.67;;;;;;;6.81;94.48;102695.59;5061232;28;20041;-81
2021/11/24 04:59:40;;;;;;;28.90;18.85;;;;;;;6.83;94.39;102699.06;5062550;28;20370;-81
2021/11/24 05:02:06;;;;;;;26.85;19.20;;;;;;;6.82;94.54;102694.75;5045345;28;20294;-82
2021/11/24 05:04:31;;;;;;;27.92;18.58;;;;;;;6.84;94.50;102697.31;5027975;28;20057;-81
2021/11/24 05:06:56;;;;;;;25.15;17.88;;;;;;;6.83;94.26;102691.25;5062744;28;20032;-81
2021/11/24 05:09:22;;;;;;;35.35;19.65;;;;;;;6.83;94.36;102688.66;5044600;28;20041;-81
2021/11/24 05:11:47;;;;;;;33.47;19.92;;;;;;;6.83;94.39;102687.78;5028364;28;20260;-81
2021/11/24 05:14:20;;;;;;;32.33;19.73;;;;;;;6.81;94.33;102679.97;5045036;28;20084;-81
2021/11/24 05:16:48;;;;;;;35.30;19.50;;;;;;;6.81;94.46;102679.09;5030277;28;20351;-81
2021/11/24 05:19:19;;;;;;;33.33;20.27;;;;;;;6.82;94.45;102680.81;5062788;28;20040;-81
2021/11/24 05:21:49;;;;;;;29.85;18.95;;;;;;;6.82;94.61;102675.63;5062845;28;20033;-81
2021/11/24 05:24:15;;;;;;;27.90;18.95;;;;;;;6.84;94.59;102673.88;5045152;28;20052;-81
2021/11/24 05:26:40;;;;;;;28.50;19.02;;;;;;;6.84;94.56;102677.38;5011286;28;20029;-81
2021/11/24 05:29:05;;;;;;;29.17;18.75;;;;;;;6.83;94.40;102673.03;5028160;28;20049;-81
2021/11/24 05:31:31;;;;;;;34.42;19.73;;;;;;;6.85;94.47;102676.50;5010556;28;20041;-81
2021/11/24 05:33:56;;;;;;;29.05;19.42;;;;;;;6.86;94.46;102673.03;5044409;28;20113;-81
2021/11/24 05:36:22;;;;;;;31.45;19.30;;;;;;;6.87;94.48;102676.50;5043759;28;20036;-81
2021/11/24 05:38:47;;;;;;;30.05;19.17;;;;;;;6.85;94.57;102675.63;5062459;28;20155;-81
2021/11/24 05:41:13;;;;;;;29.20;18.52;;;;;;;6.87;94.61;102679.97;5027662;28;20351;-81
2021/11/24 05:43:39;;;;;;;27.30;18.52;;;;;;;6.88;94.35;102676.53;5061306;28;20037;-81
2021/11/24 05:46:14;;;;;;;31.58;19.65;;;;;;;6.89;94.45;102683.50;5043948;28;20225;-81
2021/11/24 05:48:40;;;;;;;35.75;20.25;;;;;;;6.90;94.44;102684.34;5030228;28;20074;-81
2021/11/24 05:51:05;;;;;;;31.77;20.00;;;;;;;6.91;94.45;102686.06;5043956;28;20244;-81
2021/11/24 05:53:31;;;;;;;31.92;19.63;;;;;;;6.90;94.45;102679.16;5027443;28;20025;-81
2021/11/24 05:55:58;;;;;;;27.45;18.80;;;;;;;6.90;94.27;102671.31;5061265;28;20214;-81
2021/11/24 05:58:24;;;;;;;29.63;19.42;;;;;;;6.89;94.57;102673.06;5044302;28;20082;-81
2021/11/24 06:00:49;;;;;;;30.10;18.85;;;;;;;6.90;94.20;102673.94;5027345;28;20205;-81
2021/11/24 06:03:15;;;;;;;30.75;19.30;;;;;;;6.89;94.19;102669.56;5027106;28;20043;-81
2021/11/24 06:05:40;;;;;;;32.25;19.65;;;;;;;6.90;94.10;102650.50;5010413;28;20108;-81
2021/11/24 06:08:06;;;;;;;33.05;19.48;;;;;;;6.91;94.41;102655.72;5042758;28;20064;-81
2021/11/24 06:10:31;;;;;;;32.42;21.45;;;;;;;6.91;94.28;102650.50;5043592;28;20036;-81
2021/11/24 06:12:57;;;;;;;35.72;20.75;;;;;;;6.91;94.21;102654.81;5027610;28;20025;-81
2021/11/24 06:15:23;;;;;;;30.50;20.33;;;;;;;6.92;94.22;102651.38;5010583;28;20033;-81
2021/11/24 06:17:49;;;;;;;30.90;20.13;;;;;;;6.90;94.17;102653.97;5061788;28;20100;-81
2021/11/24 06:20:15;;;;;;;35.75;22.40;;;;;;;6.91;94.10;102650.50;5071568;28;20028;-81
2021/11/24 06:22:41;;;;;;;36.03;22.13;;;;;;;6.92;94.32;102647.00;5026587;28;20238;-81
2021/11/24 06:25:07;;;;;;;33.15;21.25;;;;;;;6.92;94.26;102648.75;5043762;28;20039;-81
2021/11/24 06:27:32;;;;;;;35.17;21.70;;;;;;;6.92;94.19;102647.00;5026496;28;20062;-81
2021/11/24 06:29:58;;;;;;;34.53;21.23;;;;;;;6.93;94.23;102645.31;5026574;28;20077;-81
2021/11/24 06:32:23;;;;;;;38.58;22.77;;;;;;;6.94;94.48;102635.75;5060417;28;20049;-81
2021/11/24 06:34:49;;;;;;;40.42;22.05;;;;;;;6.95;94.28;102632.25;5010733;28;20036;-81
2021/11/24 06:37:14;;;;;;;40.47;23.42;;;;;;;6.94;94.17;102623.59;5039630;28;20036;-82
2021/11/24 06:39:39;;;;;;;37.60;22.65;;;;;;;6.95;94.29;102625.34;5041720;28;20052;-82
2021/11/24 06:42:05;;;;;;;41.85;26.52;;;;;;;6.94;94.48;102628.78;5059674;28;20037;-82
2021/11/24 06:44:30;;;;;;;44.92;26.33;;;;;;;6.92;94.38;102620.97;5022794;28;20225;-81
2021/11/24 06:46:56;;;;;;;42.72;25.60;;;;;;;6.93;94.40;102632.28;5057246;28;20053;-81
2021/11/24 06:49:21;;;;;;;42.72;25.50;;;;;;;6.93;94.49;102624.47;5060708;28;20244;-81
2021/11/24 06:51:47;;;;;;;41.40;25.15;;;;;;;6.93;94.50;102624.47;5058000;28;20071;-81
2021/11/24 06:54:12;;;;;;;41.55;25.80;;;;;;;6.94;94.56;102625.31;5025872;28;20135;-82
2021/11/24 06:56:38;;;;;;;44.95;27.08;;;;;;;6.95;94.37;102616.63;5042736;28;20062;-81
2021/11/24 06:59:04;;;;;;;49.60;28.20;;;;;;;6.95;94.56;102617.53;5042756;28;20414;-82
2021/11/24 07:01:29;;;;;;;45.33;27.10;;;;;;;6.96;94.58;102613.16;5042126;28;20123;-82
2021/11/24 07:03:55;;;;;;;45.55;25.90;;;;;;;6.96;94.53;102611.44;5041979;28;20218;-82
2021/11/24 07:06:20;;;;;;;49.00;26.63;;;;;;;6.95;94.36;102609.72;5042717;28;20033;-81
2021/11/24 07:08:45;;;;;;;51.65;29.02;;;;;;;6.96;94.40;102603.59;5043082;28;20028;-82
2021/11/24 07:11:11;;;;;;;49.38;27.80;;;;;;;6.94;94.51;102600.13;5043177;28;20044;-82
2021/11/24 07:13:36;;;;;;;49.30;29.67;;;;;;;6.94;94.60;102601.88;5060673;28;20036;-82
2021/11/24 07:16:02;;;;;;;46.47;27.52;;;;;;;6.95;94.45;102607.09;5026294;28;20060;-81
2021/11/24 07:18:27;;;;;;;45.63;27.63;;;;;;;6.95;94.50;102606.22;5025016;28;20132;-81
2021/11/24 07:20:53;;;;;;;50.90;28.23;;;;;;;6.95;94.53;102612.31;5039839;28;20051;-81
2021/11/24 07:23:18;;;;;;;48.90;27.50;;;;;;;6.96;94.47;102614.03;5041891;28;20248;-81
2021/11/24 07:25:44;;;;;;;49.38;28.42;;;;;;;6.97;94.60;102614.88;5042484;28;20033;-82
2021/11/24 07:28:09;;;;;;;43.20;27.20;;;;;;;6.97;94.42;102610.56;5041977;28;20055;-82
2021/11/24 07:30:35;;;;;;;46.17;27.00;;;;;;;6.97;94.50;102613.19;5059390;28;20225;-81
2021/11/24 07:33:00;;;;;;;47.55;28.48;;;;;;;6.98;94.59;102614.91;5019096;28;20406;-82
2021/11/24 07:35:26;;;;;;;45.70;26.70;;;;;;;7.00;94.71;102612.31;5023974;28;20267;-82
2021/11/24 07:37:51;;;;;;;49.10;27.90;;;;;;;6.99;94.67;102601.03;5023455;28;20074;-81
2021/11/24 07:40:18;;;;;;;47.40;28.88;;;;;;;7.00;94.63;102605.34;5039643;28;20086;-81
2021/11/24 07:42:44;;;;;;;44.95;26.55;;;;;;;7.02;94.70;102605.34;5039954;28;20036;-81
2021/11/24 07:45:09;;;;;;;48.85;28.25;;;;;;;7.01;94.66;102608.84;5038524;28;20050;-82
2021/11/24 07:47:35;;;;;;;54.97;28.83;;;;;;;7.02;94.65;102615.78;5039978;28;20351;-82
2021/11/24 07:50:00;;;;;;;42.80;27.35;;;;;;;7.03;94.64;102607.13;5023309;28;20041;-81
2021/11/24 07:52:26;;;;;;;47.30;27.70;;;;;;;7.02;94.55;102603.66;5009114;28;20033;-81
2021/11/24 07:54:51;;;;;;;49.72;28.52;;;;;;;7.03;94.52;102607.97;5040575;28;20217;-81
2021/11/24 07:57:18;;;;;;;46.47;26.83;;;;;;;7.02;94.52;102600.16;5058059;28;20261;-81
2021/11/24 07:59:43;;;;;;;48.42;25.67;;;;;;;7.03;94.55;102601.91;5024217;28;20320;-81
2021/11/24 08:02:09;;;;;;;48.05;25.95;;;;;;;7.03;94.49;102586.28;5025756;28;20096;-81
2021/11/24 08:04:34;;;;;;;45.00;26.77;;;;;;;7.04;94.41;102593.19;5020715;28;20060;-81
2021/11/24 08:07:02;;;;;;;49.88;26.23;;;;;;;7.04;94.62;102588.88;5041110;28;20029;-82
2021/11/24 08:09:27;;;;;;;48.90;28.38;;;;;;;7.05;94.51;102581.94;5036901;28;20037;-82
2021/11/24 08:11:53;;;;;;;45.83;27.35;;;;;;;7.05;94.73;102577.56;5037067;28;20037;-82
2021/11/24 08:14:18;;;;;;;44.75;27.90;;;;;;;7.07;94.58;102583.66;5020927;28;20030;-82
2021/11/24 08:16:44;;;;;;;43.47;26.10;;;;;;;7.08;94.50;102581.94;5018616;28;20046;-82
2021/11/24 08:19:09;;;;;;;44.05;26.88;;;;;;;7.07;94.52;102578.44;5035616;28;20278;-82
2021/11/24 08:21:35;;;;;;;44.80;27.95;;;;;;;7.07;94.51;102583.66;5038171;28;20041;-82
2021/11/24 08:24:00;;;;;;;42.05;26.50;;;;;;;7.09;94.68;102575.84;5018208;28;20123;-81
2021/11/24 08:26:26;;;;;;;48.83;28.55;;;;;;;7.10;94.59;102575.84;5038029;28;20045;-82
2021/11/24 08:28:51;;;;;;;48.20;28.17;;;;;;;7.10;94.53;102572.38;5037567;28;20037;-82
2021/11/24 08:31:17;;;;;;;43.95;27.73;;;;;;;7.09;94.60;102571.53;5021358;28;20276;-82
2021/11/24 08:33:42;;;;;;;46.70;27.17;;;;;;;7.11;94.61;102568.91;5041716;28;20037;-82
2021/11/24 08:36:08;;;;;;;45.33;27.25;;;;;;;7.11;94.62;102563.69;5040642;28;20033;-82
2021/11/24 08:38:33;;;;;;;46.67;27.25;;;;;;;7.11;94.52;102566.28;5041526;28;20037;-83
2021/11/24 08:40:59;;;;;;;42.67;25.75;;;;;;;7.11;94.57;102564.59;5024667;28;20100;-82
2021/11/24 08:43:24;;;;;;;42.50;26.60;;;;;;;7.12;94.64;102555.03;5024494;28;20044;-82
2021/11/24 08:45:49;;;;;;;43.90;26.75;;;;;;;7.14;94.29;102555.03;5040059;28;20252;-82
2021/11/24 08:48:15;;;;;;;44.47;27.05;;;;;;;7.14;94.48;102550.69;5021681;28;20037;-82
2021/11/24 08:50:40;;;;;;;44.33;26.27;;;;;;;7.16;94.69;102548.06;5036074;28;20029;-82
2021/11/24 08:53:06;;;;;;;40.38;26.38;;;;;;;7.16;94.65;102551.53;5003842;28;20140;-82
2021/11/24 08:55:31;;;;;;;41.42;26.90;;;;;;;7.18;94.79;102543.72;5034411;28;20049;-82
2021/11/24 08:57:57;;;;;;;42.78;27.42;;;;;;;7.18;94.87;102535.91;5036609;28;20045;-82
2021/11/24 09:00:22;;;;;;;41.95;25.38;;;;;;;7.18;94.80;102536.78;5036230;28;20045;-82
2021/11/24 09:02:50;;;;;;;36.50;24.23;;;;;;;7.19;94.74;102537.66;5012861;28;20045;-82
2021/11/24 09:05:16;;;;;;;40.35;25.13;;;;;;;7.19;94.79;102535.91;5035337;28;20424;-82
2021/11/24 09:07:41;;;;;;;33.90;23.02;;;;;;;7.19;94.65;102535.91;5035364;28;20055;-81
2021/11/24 09:10:08;;;;;;;43.17;25.25;;;;;;;7.20;94.54;102535.03;5036751;28;20089;-82
2021/11/24 09:12:33;;;;;;;40.10;24.08;;;;;;;7.20;94.69;102535.03;5031884;28;20350;-79
2021/11/24 09:14:59;;;;;;;38.03;22.92;;;;;;;7.20;94.65;102534.16;4998989;28;20214;-79
2021/11/24 09:17:24;;;;;;;39.70;23.65;;;;;;;7.21;94.54;102534.19;5019933;28;20037;-79
2021/11/24 09:19:50;;;;;;;35.15;23.02;;;;;;;7.23;94.46;102534.19;5033864;28;20045;-79
2021/11/24 09:22:16;;;;;;;37.08;22.73;;;;;;;7.23;94.66;102536.78;5037357;28;20037;-79
2021/11/24 09:24:41;;;;;;;39.67;22.02;;;;;;;7.25;94.69;102529.84;5015805;28;20057;-79
2021/11/24 09:27:16;;;;;;;34.30;21.73;;;;;;;7.24;94.59;102521.16;5021005;28;20021;-79
2021/11/24 09:29:42;;;;;;;30.85;20.23;;;;;;;7.25;94.50;102515.06;5015833;28;20037;-79
2021/11/24 09:32:08;;;;;;;35.70;20.67;;;;;;;7.26;94.55;102523.78;5014393;28;20075;-79
2021/11/24 09:34:33;;;;;;;29.20;20.25;;;;;;;7.26;94.56;102515.94;5036879;28;20033;-79
2021/11/24 09:36:59;;;;;;;28.08;19.17;;;;;;;7.26;94.76;102513.34;5035542;28;20072;-79
2021/11/24 09:39:24;;;;;;;32.30;19.80;;;;;;;7.26;94.44;102513.34;5036861;28;20032;-79
2021/11/24 09:41:50;;;;;;;32.42;20.13;;;;;;;7.25;94.42;102517.66;5031857;28;20336;-79
2021/11/24 09:44:15;;;;;;;27.42;19.50;;;;;;;7.24;94.07;102509.84;5034603;28;20129;-79
2021/11/24 09:46:43;;;;;;;29.23;19.00;;;;;;;7.23;94.27;102508.97;5020254;28;20021;-79
2021/11/24 09:49:08;;;;;;;27.35;18.83;;;;;;;7.24;94.15;102509.84;5036517;28;20117;-79
2021/11/24 09:51:34;;;;;;;30.60;19.42;;;;;;;7.23;93.96;102500.31;5017706;28;20041;-79
2021/11/24 09:54:03;;;;;;;29.00;18.65;;;;;;;7.23;93.96;102505.53;5014985;28;20021;-79
2021/11/24 09:56:29;;;;;;;31.25;18.45;;;;;;;7.21;93.98;102491.63;5020472;28;20237;-79
2021/11/24 09:58:54;;;;;;;31.70;18.23;;;;;;;7.22;93.82;102503.75;5037902;28;20041;-79
2021/11/24 10:01:20;;;;;;;30.63;18.42;;;;;;;7.21;94.01;102502.91;5021006;28;20383;-79
2021/11/24 10:03:45;;;;;;;28.27;18.40;;;;;;;7.22;93.78;102503.75;5037183;28;20045;-79
2021/11/24 10:06:11;;;;;;;31.05;18.33;;;;;;;7.21;93.85;102492.50;5035953;28;20045;-79
2021/11/24 10:08:36;;;;;;;29.25;17.75;;;;;;;7.21;93.51;102494.22;5032511;28;20047;-79
2021/11/24 10:11:02;;;;;;;29.95;18.50;;;;;;;7.21;93.29;102500.31;5037066;28;20041;-79
2021/11/24 10:13:27;;;;;;;26.52;17.35;;;;;;;7.21;93.60;102494.22;5037841;28;20075;-79
2021/11/24 10:15:55;;;;;;;33.50;18.15;;;;;;;7.21;93.49;102489.03;5036754;28;20033;-79
2021/11/24 10:18:20;;;;;;;21.08;16.00;;;;;;;7.23;93.60;102490.75;5035210;28;20045;-79
2021/11/24 10:20:53;;;;;;;23.40;17.33;;;;;;;7.23;93.54;102485.53;5038237;28;20056;-79
2021/11/24 10:23:31;;;;;;;22.65;16.30;;;;;;;7.25;93.71;102480.31;5037365;28;20033;-79
2021/11/24 10:26:31;;;;;;;23.42;16.52;;;;;;;7.24;93.63;102469.03;5038076;28;20040;-79
2021/11/24 10:29:05;;;;;;;21.30;16.50;;;;;;;7.25;93.65;102469.91;5034623;28;20344;-79
2021/11/24 10:31:38;;;;;;;23.92;16.20;;;;;;;7.27;93.75;102458.59;5037667;28;20045;-80
2021/11/24 10:34:24;;;;;;;22.10;15.77;;;;;;;7.27;93.60;102455.97;5018151;28;20041;-79
2021/11/24 10:37:06;;;;;;;21.85;16.45;;;;;;;7.28;93.79;102452.53;5021813;28;20029;-79
2021/11/24 10:39:42;;;;;;;26.83;16.95;;;;;;;7.30;93.67;102440.34;5035053;28;20446;-79
2021/11/24 10:42:15;;;;;;;23.92;15.10;;;;;;;7.31;93.83;102438.59;5016863;28;20049;-79
2021/11/24 10:44:57;;;;;;;21.05;14.23;;;;;;;7.32;93.70;102439.50;5019930;28;20120;-79
2021/11/24 10:47:23;;;;;;;20.90;14.73;;;;;;;7.33;93.64;102438.59;5015567;28;20060;-79
2021/11/24 10:49:50;;;;;;;25.73;15.05;;;;;;;7.33;93.68;102436.91;5034756;28;20092;-79
2021/11/24 10:52:22;;;;;;;25.65;14.65;;;;;;;7.33;93.50;102434.28;5031514;28;20045;-79
2021/11/24 10:55:11;;;;;;;18.80;13.70;;;;;;;7.34;93.54;102429.94;5035442;28;20399;-79
2021/11/24 10:57:38;;;;;;;19.17;13.10;;;;;;;7.34;93.46;102417.75;5030440;28;20033;-81
2021/11/24 11:00:15;;;;;;;18.45;13.30;;;;;;;7.33;93.40;102409.94;5023626;28;20160;-80
2021/11/24 11:02:46;;;;;;;17.83;12.27;;;;;;;7.34;93.13;102411.69;5013430;28;20040;-81
2021/11/24 11:05:13;;;;;;;14.90;11.32;;;;;;;7.34;93.28;102407.34;5016913;28;20112;-81
2021/11/24 11:07:54;;;;;;;19.77;11.98;;;;;;;7.33;93.21;102392.59;5032534;28;20065;-80
2021/11/24 11:10:20;;;;;;;14.63;11.05;;;;;;;7.34;92.93;102398.66;5033487;28;20128;-80
2021/11/24 11:12:50;;;;;;;19.20;12.18;;;;;;;7.35;92.98;102389.94;5036337;28;20038;-80